sensor_id;sensor_type;location;lat;lon;timestamp;temperature;humidity
67093;SHT31;54011;50.772;7.730;2022-09-01T00:02:12;14.86;72.34
67093;SHT31;54011;50.772;7.730;2022-09-01T00:04:42;14.81;72.19
67093;SHT31;54011;50.772;7.730;2022-09-01T00:07:09;14.70;72.51
67093;SHT31;54011;50.772;7.730;2022-09-01T00:09:36;14.62;72.72
67093;SHT31;54011;50.772;7.730;2022-09-01T00:12:02;14.56;73.18
67093;SHT31;54011;50.772;7.730;2022-09-01T00:14:31;14.52;73.42
67093;SHT31;54011;50.772;7.730;2022-09-01T00:17:10;14.45;73.48
67093;SHT31;54011;50.772;7.730;2022-09-01T00:19:36;14.36;73.76
67093;SHT31;54011;50.772;7.730;2022-09-01T00:22:03;14.29;73.96
67093;SHT31;54011;50.772;7.730;2022-09-01T00:24:28;14.35;73.92
67093;SHT31;54011;50.772;7.730;2022-09-01T00:26:55;14.47;73.79
67093;SHT31;54011;50.772;7.730;2022-09-01T00:29:21;14.50;73.07
67093;SHT31;54011;50.772;7.730;2022-09-01T00:31:47;14.62;73.06
67093;SHT31;54011;50.772;7.730;2022-09-01T00:34:13;14.59;73.23
67093;SHT31;54011;50.772;7.730;2022-09-01T00:36:38;14.60;73.21
67093;SHT31;54011;50.772;7.730;2022-09-01T00:39:05;14.57;73.53
67093;SHT31;54011;50.772;7.730;2022-09-01T00:41:34;14.65;73.36
67093;SHT31;54011;50.772;7.730;2022-09-01T00:44:08;14.57;73.79
67093;SHT31;54011;50.772;7.730;2022-09-01T00:46:45;14.69;73.43
67093;SHT31;54011;50.772;7.730;2022-09-01T00:49:38;14.81;73.02
67093;SHT31;54011;50.772;7.730;2022-09-01T00:52:15;14.98;72.30
67093;SHT31;54011;50.772;7.730;2022-09-01T00:54:45;15.00;72.20
67093;SHT31;54011;50.772;7.730;2022-09-01T00:57:11;15.00;72.16
67093;SHT31;54011;50.772;7.730;2022-09-01T00:59:42;14.90;72.74
67093;SHT31;54011;50.772;7.730;2022-09-01T01:02:09;14.80;73.21
67093;SHT31;54011;50.772;7.730;2022-09-01T01:04:35;14.84;73.03
67093;SHT31;54011;50.772;7.730;2022-09-01T01:07:02;14.72;73.32
67093;SHT31;54011;50.772;7.730;2022-09-01T01:09:34;14.55;73.42
67093;SHT31;54011;50.772;7.730;2022-09-01T01:12:02;14.55;73.95
67093;SHT31;54011;50.772;7.730;2022-09-01T01:14:28;14.50;73.85
67093;SHT31;54011;50.772;7.730;2022-09-01T01:16:59;14.18;75.21
67093;SHT31;54011;50.772;7.730;2022-09-01T01:19:54;14.47;74.43
67093;SHT31;54011;50.772;7.730;2022-09-01T01:25:47;14.42;74.50
67093;SHT31;54011;50.772;7.730;2022-09-01T01:28:28;14.40;74.52
67093;SHT31;54011;50.772;7.730;2022-09-01T01:31:21;14.29;75.16
67093;SHT31;54011;50.772;7.730;2022-09-01T01:33:50;14.30;74.85
67093;SHT31;54011;50.772;7.730;2022-09-01T01:36:31;14.35;74.27
67093;SHT31;54011;50.772;7.730;2022-09-01T01:39:05;14.32;74.65
67093;SHT31;54011;50.772;7.730;2022-09-01T01:41:32;14.32;74.61
67093;SHT31;54011;50.772;7.730;2022-09-01T01:43:59;14.29;74.46
67093;SHT31;54011;50.772;7.730;2022-09-01T01:46:29;14.29;74.22
67093;SHT31;54011;50.772;7.730;2022-09-01T01:48:55;14.33;74.25
67093;SHT31;54011;50.772;7.730;2022-09-01T01:51:21;14.25;73.86
67093;SHT31;54011;50.772;7.730;2022-09-01T01:53:53;14.30;73.70
67093;SHT31;54011;50.772;7.730;2022-09-01T01:56:20;14.47;72.82
67093;SHT31;54011;50.772;7.730;2022-09-01T01:58:51;14.35;73.21
67093;SHT31;54011;50.772;7.730;2022-09-01T02:01:25;14.43;73.15
67093;SHT31;54011;50.772;7.730;2022-09-01T02:03:54;14.16;74.48
67093;SHT31;54011;50.772;7.730;2022-09-01T02:06:22;14.09;74.78
67093;SHT31;54011;50.772;7.730;2022-09-01T02:08:53;14.08;74.88
67093;SHT31;54011;50.772;7.730;2022-09-01T02:11:22;14.04;74.68
67093;SHT31;54011;50.772;7.730;2022-09-01T02:13:48;14.09;73.90
67093;SHT31;54011;50.772;7.730;2022-09-01T02:16:14;14.11;73.69
67093;SHT31;54011;50.772;7.730;2022-09-01T02:18:43;14.15;73.40
67093;SHT31;54011;50.772;7.730;2022-09-01T02:25:05;13.81;75.51
67093;SHT31;54011;50.772;7.730;2022-09-01T02:27:32;13.78;75.79
67093;SHT31;54011;50.772;7.730;2022-09-01T02:29:59;13.74;75.22
67093;SHT31;54011;50.772;7.730;2022-09-01T02:32:26;13.78;75.70
67093;SHT31;54011;50.772;7.730;2022-09-01T02:34:52;13.82;74.91
67093;SHT31;54011;50.772;7.730;2022-09-01T02:37:25;13.84;74.63
67093;SHT31;54011;50.772;7.730;2022-09-01T02:39:51;13.94;74.60
67093;SHT31;54011;50.772;7.730;2022-09-01T02:42:18;14.04;74.15
67093;SHT31;54011;50.772;7.730;2022-09-01T02:44:53;13.97;74.22
67093;SHT31;54011;50.772;7.730;2022-09-01T02:47:20;14.00;74.27
67093;SHT31;54011;50.772;7.730;2022-09-01T02:49:49;14.02;74.29
67093;SHT31;54011;50.772;7.730;2022-09-01T02:52:14;13.95;74.38
67093;SHT31;54011;50.772;7.730;2022-09-01T02:54:42;13.98;74.27
67093;SHT31;54011;50.772;7.730;2022-09-01T02:57:10;13.95;74.41
67093;SHT31;54011;50.772;7.730;2022-09-01T02:59:37;13.79;74.79
67093;SHT31;54011;50.772;7.730;2022-09-01T03:02:03;13.84;74.83
67093;SHT31;54011;50.772;7.730;2022-09-01T03:04:31;13.82;75.05
67093;SHT31;54011;50.772;7.730;2022-09-01T03:07:03;13.81;75.01
67093;SHT31;54011;50.772;7.730;2022-09-01T03:09:29;13.78;74.98
67093;SHT31;54011;50.772;7.730;2022-09-01T03:11:57;13.84;74.93
67093;SHT31;54011;50.772;7.730;2022-09-01T03:14:24;13.74;75.03
67093;SHT31;54011;50.772;7.730;2022-09-01T03:16:51;13.70;75.10
67093;SHT31;54011;50.772;7.730;2022-09-01T03:19:17;13.68;75.31
67093;SHT31;54011;50.772;7.730;2022-09-01T03:21:45;13.64;75.64
67093;SHT31;54011;50.772;7.730;2022-09-01T03:24:16;13.67;75.16
67093;SHT31;54011;50.772;7.730;2022-09-01T03:26:43;13.60;75.76
67093;SHT31;54011;50.772;7.730;2022-09-01T03:29:08;13.61;75.55
67093;SHT31;54011;50.772;7.730;2022-09-01T03:31:35;13.61;75.63
67093;SHT31;54011;50.772;7.730;2022-09-01T03:34:01;13.63;75.54
67093;SHT31;54011;50.772;7.730;2022-09-01T03:36:30;13.58;75.66
67093;SHT31;54011;50.772;7.730;2022-09-01T03:38:58;13.58;75.68
67093;SHT31;54011;50.772;7.730;2022-09-01T03:41:27;13.57;75.93
67093;SHT31;54011;50.772;7.730;2022-09-01T03:43:53;13.51;76.00
67093;SHT31;54011;50.772;7.730;2022-09-01T03:46:21;13.58;75.79
67093;SHT31;54011;50.772;7.730;2022-09-01T03:48:48;13.54;76.00
67093;SHT31;54011;50.772;7.730;2022-09-01T03:51:15;13.51;75.92
67093;SHT31;54011;50.772;7.730;2022-09-01T03:53:40;13.54;76.01
67093;SHT31;54011;50.772;7.730;2022-09-01T03:56:06;13.51;76.02
67093;SHT31;54011;50.772;7.730;2022-09-01T03:58:33;13.53;75.93
67093;SHT31;54011;50.772;7.730;2022-09-01T04:00:59;13.50;76.07
67093;SHT31;54011;50.772;7.730;2022-09-01T04:03:30;13.53;76.02
67093;SHT31;54011;50.772;7.730;2022-09-01T04:05:58;13.50;75.91
67093;SHT31;54011;50.772;7.730;2022-09-01T04:08:25;13.51;76.21
67093;SHT31;54011;50.772;7.730;2022-09-01T04:10:56;13.48;76.09
67093;SHT31;54011;50.772;7.730;2022-09-01T04:13:33;13.46;76.12
67093;SHT31;54011;50.772;7.730;2022-09-01T04:16:00;13.42;76.28
67093;SHT31;54011;50.772;7.730;2022-09-01T04:18:25;13.39;76.51
67093;SHT31;54011;50.772;7.730;2022-09-01T04:20:53;13.37;76.67
67093;SHT31;54011;50.772;7.730;2022-09-01T04:23:23;13.33;76.60
67093;SHT31;54011;50.772;7.730;2022-09-01T04:26:07;13.28;76.79
67093;SHT31;54011;50.772;7.730;2022-09-01T04:28:37;13.20;77.21
67093;SHT31;54011;50.772;7.730;2022-09-01T04:31:05;13.19;76.96
67093;SHT31;54011;50.772;7.730;2022-09-01T04:33:36;13.16;77.27
67093;SHT31;54011;50.772;7.730;2022-09-01T04:36:11;13.16;77.14
67093;SHT31;54011;50.772;7.730;2022-09-01T04:38:41;13.12;77.21
67093;SHT31;54011;50.772;7.730;2022-09-01T04:41:06;13.05;77.59
67093;SHT31;54011;50.772;7.730;2022-09-01T04:43:33;13.06;77.57
67093;SHT31;54011;50.772;7.730;2022-09-01T04:46:00;13.12;77.57
67093;SHT31;54011;50.772;7.730;2022-09-01T04:48:27;13.07;77.47
67093;SHT31;54011;50.772;7.730;2022-09-01T04:50:53;13.10;77.45
67093;SHT31;54011;50.772;7.730;2022-09-01T04:53:24;13.12;77.16
67093;SHT31;54011;50.772;7.730;2022-09-01T04:55:50;13.06;77.57
67093;SHT31;54011;50.772;7.730;2022-09-01T04:58:20;12.95;77.81
67093;SHT31;54011;50.772;7.730;2022-09-01T05:00:48;13.06;77.59
67093;SHT31;54011;50.772;7.730;2022-09-01T05:03:17;13.06;77.50
67093;SHT31;54011;50.772;7.730;2022-09-01T05:05:52;12.97;77.70
67093;SHT31;54011;50.772;7.730;2022-09-01T05:08:25;12.92;78.01
67093;SHT31;54011;50.772;7.730;2022-09-01T05:10:54;12.93;77.90
67093;SHT31;54011;50.772;7.730;2022-09-01T05:13:32;12.93;78.11
67093;SHT31;54011;50.772;7.730;2022-09-01T05:16:05;12.95;78.03
67093;SHT31;54011;50.772;7.730;2022-09-01T05:18:32;12.96;77.88
67093;SHT31;54011;50.772;7.730;2022-09-01T05:21:04;13.05;77.69
67093;SHT31;54011;50.772;7.730;2022-09-01T05:23:34;13.12;77.49
67093;SHT31;54011;50.772;7.730;2022-09-01T05:26:01;13.16;77.16
67093;SHT31;54011;50.772;7.730;2022-09-01T05:28:27;13.13;77.39
67093;SHT31;54011;50.772;7.730;2022-09-01T05:30:53;13.07;77.49
67093;SHT31;54011;50.772;7.730;2022-09-01T05:33:20;13.12;77.15
67093;SHT31;54011;50.772;7.730;2022-09-01T05:35:57;13.12;77.37
67093;SHT31;54011;50.772;7.730;2022-09-01T05:38:26;13.03;77.76
67093;SHT31;54011;50.772;7.730;2022-09-01T05:41:00;13.12;77.32
67093;SHT31;54011;50.772;7.730;2022-09-01T05:43:28;13.20;77.00
67093;SHT31;54011;50.772;7.730;2022-09-01T05:45:56;13.28;76.64
67093;SHT31;54011;50.772;7.730;2022-09-01T05:48:23;13.36;76.66
67093;SHT31;54011;50.772;7.730;2022-09-01T05:50:50;13.26;76.93
67093;SHT31;54011;50.772;7.730;2022-09-01T05:53:21;13.34;76.39
67093;SHT31;54011;50.772;7.730;2022-09-01T05:55:51;13.42;76.17
67093;SHT31;54011;50.772;7.730;2022-09-01T05:58:23;13.50;75.81
67093;SHT31;54011;50.772;7.730;2022-09-01T06:00:51;13.68;75.36
67093;SHT31;54011;50.772;7.730;2022-09-01T06:03:19;13.75;74.97
67093;SHT31;54011;50.772;7.730;2022-09-01T06:05:47;13.82;74.58
67093;SHT31;54011;50.772;7.730;2022-09-01T06:08:19;13.91;74.25
67093;SHT31;54011;50.772;7.730;2022-09-01T06:10:46;13.98;74.16
67093;SHT31;54011;50.772;7.730;2022-09-01T06:13:12;14.16;73.23
67093;SHT31;54011;50.772;7.730;2022-09-01T06:15:40;14.28;72.89
67093;SHT31;54011;50.772;7.730;2022-09-01T06:18:08;14.28;72.73
67093;SHT31;54011;50.772;7.730;2022-09-01T06:20:41;14.30;72.35
67093;SHT31;54011;50.772;7.730;2022-09-01T06:23:09;14.43;72.11
67093;SHT31;54011;50.772;7.730;2022-09-01T06:25:39;14.50;71.90
67093;SHT31;54011;50.772;7.730;2022-09-01T06:28:15;14.50;71.50
67093;SHT31;54011;50.772;7.730;2022-09-01T06:30:41;14.59;71.22
67093;SHT31;54011;50.772;7.730;2022-09-01T06:33:09;14.76;70.69
67093;SHT31;54011;50.772;7.730;2022-09-01T06:35:41;14.91;70.31
67093;SHT31;54011;50.772;7.730;2022-09-01T06:38:10;15.03;70.19
67093;SHT31;54011;50.772;7.730;2022-09-01T06:40:42;15.08;69.70
67093;SHT31;54011;50.772;7.730;2022-09-01T06:43:10;15.17;69.46
67093;SHT31;54011;50.772;7.730;2022-09-01T06:45:40;15.38;68.38
67093;SHT31;54011;50.772;7.730;2022-09-01T06:48:07;15.44;67.74
67093;SHT31;54011;50.772;7.730;2022-09-01T06:50:35;15.56;67.50
67093;SHT31;54011;50.772;7.730;2022-09-01T06:53:02;15.61;67.32
67093;SHT31;54011;50.772;7.730;2022-09-01T06:55:39;15.81;66.91
67093;SHT31;54011;50.772;7.730;2022-09-01T06:58:08;15.83;66.36
67093;SHT31;54011;50.772;7.730;2022-09-01T07:00:36;16.02;65.42
67093;SHT31;54011;50.772;7.730;2022-09-01T07:03:12;16.09;65.00
67093;SHT31;54011;50.772;7.730;2022-09-01T07:06:04;16.26;64.48
67093;SHT31;54011;50.772;7.730;2022-09-01T07:08:55;16.34;64.31
67093;SHT31;54011;50.772;7.730;2022-09-01T07:11:29;16.41;63.92
67093;SHT31;54011;50.772;7.730;2022-09-01T07:14:00;16.67;63.56
67093;SHT31;54011;50.772;7.730;2022-09-01T07:16:28;16.82;62.82
67093;SHT31;54011;50.772;7.730;2022-09-01T07:18:56;17.19;61.75
67093;SHT31;54011;50.772;7.730;2022-09-01T07:21:24;17.36;60.81
67093;SHT31;54011;50.772;7.730;2022-09-01T07:23:49;17.56;59.84
67093;SHT31;54011;50.772;7.730;2022-09-01T07:26:16;17.75;59.65
67093;SHT31;54011;50.772;7.730;2022-09-01T07:28:46;17.70;59.74
67093;SHT31;54011;50.772;7.730;2022-09-01T07:31:23;17.69;59.70
67093;SHT31;54011;50.772;7.730;2022-09-01T07:33:51;17.78;59.73
67093;SHT31;54011;50.772;7.730;2022-09-01T07:36:19;17.87;59.12
67093;SHT31;54011;50.772;7.730;2022-09-01T07:38:45;18.02;59.00
67093;SHT31;54011;50.772;7.730;2022-09-01T07:41:16;18.21;58.13
67093;SHT31;54011;50.772;7.730;2022-09-01T07:43:44;18.38;57.65
67093;SHT31;54011;50.772;7.730;2022-09-01T07:46:29;18.56;57.29
67093;SHT31;54011;50.772;7.730;2022-09-01T07:48:58;18.74;57.25
67093;SHT31;54011;50.772;7.730;2022-09-01T07:51:25;18.67;56.74
67093;SHT31;54011;50.772;7.730;2022-09-01T07:53:51;18.84;56.48
67093;SHT31;54011;50.772;7.730;2022-09-01T07:56:21;19.21;55.78
67093;SHT31;54011;50.772;7.730;2022-09-01T07:58:49;19.45;55.11
67093;SHT31;54011;50.772;7.730;2022-09-01T08:01:18;19.76;53.97
67093;SHT31;54011;50.772;7.730;2022-09-01T08:03:50;20.08;53.47
67093;SHT31;54011;50.772;7.730;2022-09-01T08:06:18;20.24;52.85
67093;SHT31;54011;50.772;7.730;2022-09-01T08:08:46;20.40;52.48
67093;SHT31;54011;50.772;7.730;2022-09-01T08:11:30;20.71;51.95
67093;SHT31;54011;50.772;7.730;2022-09-01T08:13:58;20.90;51.33
67093;SHT31;54011;50.772;7.730;2022-09-01T08:16:25;20.75;51.17
67093;SHT31;54011;50.772;7.730;2022-09-01T08:18:52;21.19;50.79
67093;SHT31;54011;50.772;7.730;2022-09-01T08:21:27;21.23;49.99
67093;SHT31;54011;50.772;7.730;2022-09-01T08:23:56;21.23;50.80
67093;SHT31;54011;50.772;7.730;2022-09-01T08:26:24;21.13;50.39
67093;SHT31;54011;50.772;7.730;2022-09-01T08:28:51;21.23;50.75
67093;SHT31;54011;50.772;7.730;2022-09-01T08:31:18;21.54;49.83
67093;SHT31;54011;50.772;7.730;2022-09-01T08:33:48;22.17;49.07
67093;SHT31;54011;50.772;7.730;2022-09-01T08:36:15;21.93;49.22
67093;SHT31;54011;50.772;7.730;2022-09-01T08:38:42;22.37;48.17
67093;SHT31;54011;50.772;7.730;2022-09-01T08:41:41;22.73;47.80
67093;SHT31;54011;50.772;7.730;2022-09-01T08:44:12;22.71;47.76
67093;SHT31;54011;50.772;7.730;2022-09-01T08:46:42;22.93;47.18
67093;SHT31;54011;50.772;7.730;2022-09-01T08:49:18;23.44;46.26
67093;SHT31;54011;50.772;7.730;2022-09-01T08:54:50;23.09;46.51
67093;SHT31;54011;50.772;7.730;2022-09-01T08:57:25;23.43;46.36
67093;SHT31;54011;50.772;7.730;2022-09-01T09:00:14;23.84;45.15
67093;SHT31;54011;50.772;7.730;2022-09-01T09:08:16;24.28;44.85
67093;SHT31;54011;50.772;7.730;2022-09-01T09:11:07;24.71;44.00
67093;SHT31;54011;50.772;7.730;2022-09-01T09:16:25;25.03;43.29
67093;SHT31;54011;50.772;7.730;2022-09-01T09:18:59;24.91;43.69
67093;SHT31;54011;50.772;7.730;2022-09-01T09:21:32;24.40;44.53
67093;SHT31;54011;50.772;7.730;2022-09-01T09:26:37;25.37;43.10
67093;SHT31;54011;50.772;7.730;2022-09-01T09:29:03;25.41;42.81
67093;SHT31;54011;50.772;7.730;2022-09-01T09:31:36;26.07;41.58
67093;SHT31;54011;50.772;7.730;2022-09-01T09:36:43;25.78;42.33
67093;SHT31;54011;50.772;7.730;2022-09-01T09:39:16;25.76;42.67
67093;SHT31;54011;50.772;7.730;2022-09-01T09:41:43;24.71;44.02
67093;SHT31;54011;50.772;7.730;2022-09-01T09:44:27;25.11;43.06
67093;SHT31;54011;50.772;7.730;2022-09-01T09:46:54;26.06;41.52
67093;SHT31;54011;50.772;7.730;2022-09-01T09:49:23;26.62;41.03
67093;SHT31;54011;50.772;7.730;2022-09-01T09:51:55;26.71;40.13
67093;SHT31;54011;50.772;7.730;2022-09-01T09:54:29;27.00;39.33
67093;SHT31;54011;50.772;7.730;2022-09-01T10:05:22;25.79;41.56
67093;SHT31;54011;50.772;7.730;2022-09-01T10:07:47;25.85;42.05
67093;SHT31;54011;50.772;7.730;2022-09-01T10:10:40;25.70;42.13
67093;SHT31;54011;50.772;7.730;2022-09-01T10:13:15;24.86;43.42
67093;SHT31;54011;50.772;7.730;2022-09-01T10:15:54;25.85;42.27
67093;SHT31;54011;50.772;7.730;2022-09-01T10:18:26;27.25;39.30
67093;SHT31;54011;50.772;7.730;2022-09-01T10:21:24;25.49;42.27
67093;SHT31;54011;50.772;7.730;2022-09-01T10:23:50;26.71;40.17
67093;SHT31;54011;50.772;7.730;2022-09-01T10:26:36;26.61;40.53
67093;SHT31;54011;50.772;7.730;2022-09-01T10:29:24;27.61;38.57
67093;SHT31;54011;50.772;7.730;2022-09-01T10:31:53;27.66;38.60
67093;SHT31;54011;50.772;7.730;2022-09-01T10:34:20;25.78;42.03
67093;SHT31;54011;50.772;7.730;2022-09-01T10:36:46;24.87;43.59
67093;SHT31;54011;50.772;7.730;2022-09-01T10:39:14;26.16;41.31
67093;SHT31;54011;50.772;7.730;2022-09-01T10:41:54;25.18;43.47
67093;SHT31;54011;50.772;7.730;2022-09-01T10:44:36;25.04;43.17
67093;SHT31;54011;50.772;7.730;2022-09-01T10:47:10;25.10;43.74
67093;SHT31;54011;50.772;7.730;2022-09-01T10:52:51;26.44;40.55
67093;SHT31;54011;50.772;7.730;2022-09-01T10:54:59;26.91;39.07
67093;SHT31;54011;50.772;7.730;2022-09-01T10:57:43;26.41;39.81
67093;SHT31;54011;50.772;7.730;2022-09-01T11:08:22;24.53;43.21
67093;SHT31;54011;50.772;7.730;2022-09-01T11:11:14;24.48;43.85
67093;SHT31;54011;50.772;7.730;2022-09-01T11:13:48;24.33;43.82
67093;SHT31;54011;50.772;7.730;2022-09-01T11:16:36;24.48;43.53
67093;SHT31;54011;50.772;7.730;2022-09-01T11:27:11;28.66;33.78
67093;SHT31;54011;50.772;7.730;2022-09-01T11:30:07;28.62;33.59
67093;SHT31;54011;50.772;7.730;2022-09-01T11:32:34;29.31;32.99
67093;SHT31;54011;50.772;7.730;2022-09-01T11:35:22;29.55;32.79
67093;SHT31;54011;50.772;7.730;2022-09-01T11:37:50;29.61;32.56
67093;SHT31;54011;50.772;7.730;2022-09-01T11:40:23;29.47;32.94
67093;SHT31;54011;50.772;7.730;2022-09-01T11:42:51;29.20;33.08
67093;SHT31;54011;50.772;7.730;2022-09-01T11:45:20;27.59;35.77
67093;SHT31;54011;50.772;7.730;2022-09-01T11:47:50;28.73;34.38
67093;SHT31;54011;50.772;7.730;2022-09-01T11:50:24;28.62;33.56
67093;SHT31;54011;50.772;7.730;2022-09-01T11:52:54;29.93;32.37
67093;SHT31;54011;50.772;7.730;2022-09-01T11:57:53;30.97;30.31
67093;SHT31;54011;50.772;7.730;2022-09-01T12:00:29;30.60;30.86
67093;SHT31;54011;50.772;7.730;2022-09-01T12:02:55;30.53;29.84
67093;SHT31;54011;50.772;7.730;2022-09-01T12:05:32;29.50;31.32
67093;SHT31;54011;50.772;7.730;2022-09-01T12:08:01;30.12;30.31
67093;SHT31;54011;50.772;7.730;2022-09-01T12:10:37;29.84;31.22
67093;SHT31;54011;50.772;7.730;2022-09-01T12:13:09;31.34;29.44
67093;SHT31;54011;50.772;7.730;2022-09-01T12:15:37;31.79;28.64
67093;SHT31;54011;50.772;7.730;2022-09-01T12:18:20;31.24;29.18
67093;SHT31;54011;50.772;7.730;2022-09-01T12:20:48;31.72;28.68
67093;SHT31;54011;50.772;7.730;2022-09-01T12:25:54;28.65;32.47
67093;SHT31;54011;50.772;7.730;2022-09-01T12:28:22;29.78;30.19
67093;SHT31;54011;50.772;7.730;2022-09-01T12:30:49;30.33;30.00
67093;SHT31;54011;50.772;7.730;2022-09-01T12:33:16;30.77;28.08
67093;SHT31;54011;50.772;7.730;2022-09-01T12:35:43;30.99;28.60
67093;SHT31;54011;50.772;7.730;2022-09-01T12:40:45;30.91;28.17
67093;SHT31;54011;50.772;7.730;2022-09-01T12:43:27;31.56;27.57
67093;SHT31;54011;50.772;7.730;2022-09-01T12:45:52;32.20;26.32
67093;SHT31;54011;50.772;7.730;2022-09-01T12:48:28;32.19;26.75
67093;SHT31;54011;50.772;7.730;2022-09-01T12:50:57;30.64;28.08
67093;SHT31;54011;50.772;7.730;2022-09-01T12:53:24;30.59;28.81
67093;SHT31;54011;50.772;7.730;2022-09-01T12:56:01;29.82;29.95
67093;SHT31;54011;50.772;7.730;2022-09-01T12:58:28;28.90;31.24
67093;SHT31;54011;50.772;7.730;2022-09-01T13:00:58;28.24;31.70
67093;SHT31;54011;50.772;7.730;2022-09-01T13:03:24;29.06;31.28
67093;SHT31;54011;50.772;7.730;2022-09-01T13:06:00;31.63;27.53
67093;SHT31;54011;50.772;7.730;2022-09-01T13:08:35;30.77;27.82
67093;SHT31;54011;50.772;7.730;2022-09-01T13:11:13;28.96;30.25
67093;SHT31;54011;50.772;7.730;2022-09-01T13:13:39;28.28;31.43
67093;SHT31;54011;50.772;7.730;2022-09-01T13:16:05;28.24;30.83
67093;SHT31;54011;50.772;7.730;2022-09-01T13:18:40;27.63;31.77
67093;SHT31;54011;50.772;7.730;2022-09-01T13:21:08;27.03;33.01
67093;SHT31;54011;50.772;7.730;2022-09-01T13:23:34;28.02;31.56
67093;SHT31;54011;50.772;7.730;2022-09-01T13:26:08;29.74;28.96
67093;SHT31;54011;50.772;7.730;2022-09-01T13:28:35;28.41;30.70
67093;SHT31;54011;50.772;7.730;2022-09-01T13:31:03;28.80;30.99
67093;SHT31;54011;50.772;7.730;2022-09-01T13:33:34;30.09;28.41
67093;SHT31;54011;50.772;7.730;2022-09-01T13:36:00;28.31;29.98
67093;SHT31;54011;50.772;7.730;2022-09-01T13:38:27;30.60;27.76
67093;SHT31;54011;50.772;7.730;2022-09-01T13:40:52;31.58;27.03
67093;SHT31;54011;50.772;7.730;2022-09-01T13:43:22;32.95;25.82
67093;SHT31;54011;50.772;7.730;2022-09-01T13:45:48;32.27;25.79
67093;SHT31;54011;50.772;7.730;2022-09-01T13:48:15;32.21;25.91
67093;SHT31;54011;50.772;7.730;2022-09-01T13:50:41;33.36;25.19
67093;SHT31;54011;50.772;7.730;2022-09-01T13:53:07;30.08;28.13
67093;SHT31;54011;50.772;7.730;2022-09-01T13:55:35;28.56;30.18
67093;SHT31;54011;50.772;7.730;2022-09-01T13:58:03;29.11;30.14
67093;SHT31;54011;50.772;7.730;2022-09-01T14:00:31;28.65;30.10
67093;SHT31;54011;50.772;7.730;2022-09-01T14:03:00;31.31;26.43
67093;SHT31;54011;50.772;7.730;2022-09-01T14:05:36;32.10;25.57
67093;SHT31;54011;50.772;7.730;2022-09-01T14:08:02;33.13;24.47
67093;SHT31;54011;50.772;7.730;2022-09-01T14:10:29;33.15;24.22
67093;SHT31;54011;50.772;7.730;2022-09-01T14:12:56;32.92;24.17
67093;SHT31;54011;50.772;7.730;2022-09-01T14:15:22;33.26;24.16
67093;SHT31;54011;50.772;7.730;2022-09-01T14:17:49;32.09;25.05
67093;SHT31;54011;50.772;7.730;2022-09-01T14:20:18;32.25;25.70
67093;SHT31;54011;50.772;7.730;2022-09-01T14:22:44;33.12;24.58
67093;SHT31;54011;50.772;7.730;2022-09-01T14:25:11;33.05;24.85
67093;SHT31;54011;50.772;7.730;2022-09-01T14:27:37;33.03;24.53
67093;SHT31;54011;50.772;7.730;2022-09-01T14:30:04;33.33;23.98
67093;SHT31;54011;50.772;7.730;2022-09-01T14:32:30;32.96;23.97
67093;SHT31;54011;50.772;7.730;2022-09-01T14:34:56;32.96;23.94
67093;SHT31;54011;50.772;7.730;2022-09-01T14:37:22;33.40;23.46
67093;SHT31;54011;50.772;7.730;2022-09-01T14:39:52;32.10;24.94
67093;SHT31;54011;50.772;7.730;2022-09-01T14:42:18;30.74;25.98
67093;SHT31;54011;50.772;7.730;2022-09-01T14:44:45;32.16;25.07
67093;SHT31;54011;50.772;7.730;2022-09-01T14:47:11;33.02;24.02
67093;SHT31;54011;50.772;7.730;2022-09-01T14:49:38;30.88;26.31
67093;SHT31;54011;50.772;7.730;2022-09-01T14:52:05;29.39;28.36
67093;SHT31;54011;50.772;7.730;2022-09-01T14:54:33;28.95;28.85
67093;SHT31;54011;50.772;7.730;2022-09-01T14:57:00;28.37;29.85
67093;SHT31;54011;50.772;7.730;2022-09-01T14:59:27;27.94;30.20
67093;SHT31;54011;50.772;7.730;2022-09-01T15:01:53;27.78;30.79
67093;SHT31;54011;50.772;7.730;2022-09-01T15:04:18;27.67;30.56
67093;SHT31;54011;50.772;7.730;2022-09-01T15:06:44;27.28;31.33
67093;SHT31;54011;50.772;7.730;2022-09-01T15:09:09;27.02;31.81
67093;SHT31;54011;50.772;7.730;2022-09-01T15:11:35;28.96;29.34
67093;SHT31;54011;50.772;7.730;2022-09-01T15:14:00;28.07;30.75
67093;SHT31;54011;50.772;7.730;2022-09-01T15:16:26;27.68;30.88
67093;SHT31;54011;50.772;7.730;2022-09-01T15:18:52;29.85;28.57
67093;SHT31;54011;50.772;7.730;2022-09-01T15:21:30;31.32;26.83
67093;SHT31;54011;50.772;7.730;2022-09-01T15:23:58;31.46;26.17
67093;SHT31;54011;50.772;7.730;2022-09-01T15:26:25;31.94;25.82
67093;SHT31;54011;50.772;7.730;2022-09-01T15:28:50;32.24;25.64
67093;SHT31;54011;50.772;7.730;2022-09-01T15:31:17;32.19;25.77
67093;SHT31;54011;50.772;7.730;2022-09-01T15:33:43;32.12;25.64
67093;SHT31;54011;50.772;7.730;2022-09-01T15:36:14;32.62;25.11
67093;SHT31;54011;50.772;7.730;2022-09-01T15:38:40;32.07;25.23
67093;SHT31;54011;50.772;7.730;2022-09-01T15:41:06;32.58;25.19
67093;SHT31;54011;50.772;7.730;2022-09-01T15:43:31;31.96;25.41
67093;SHT31;54011;50.772;7.730;2022-09-01T15:45:57;30.98;26.09
67093;SHT31;54011;50.772;7.730;2022-09-01T15:48:24;32.10;25.86
67093;SHT31;54011;50.772;7.730;2022-09-01T15:50:49;32.67;24.86
67093;SHT31;54011;50.772;7.730;2022-09-01T15:53:14;31.12;26.13
67093;SHT31;54011;50.772;7.730;2022-09-01T15:55:43;30.94;26.67
67093;SHT31;54011;50.772;7.730;2022-09-01T15:58:16;31.15;26.51
67093;SHT31;54011;50.772;7.730;2022-09-01T16:00:42;30.09;27.39
67093;SHT31;54011;50.772;7.730;2022-09-01T16:03:08;29.55;27.92
67093;SHT31;54011;50.772;7.730;2022-09-01T16:05:36;28.60;29.30
67093;SHT31;54011;50.772;7.730;2022-09-01T16:08:04;27.35;30.74
67093;SHT31;54011;50.772;7.730;2022-09-01T16:10:34;28.49;29.20
67093;SHT31;54011;50.772;7.730;2022-09-01T16:13:00;29.33;28.23
67093;SHT31;54011;50.772;7.730;2022-09-01T16:15:26;29.81;27.78
67093;SHT31;54011;50.772;7.730;2022-09-01T16:18:37;30.16;27.61
67093;SHT31;54011;50.772;7.730;2022-09-01T16:21:23;30.41;27.07
67093;SHT31;54011;50.772;7.730;2022-09-01T16:23:52;29.84;27.92
67093;SHT31;54011;50.772;7.730;2022-09-01T16:26:19;28.69;29.48
67093;SHT31;54011;50.772;7.730;2022-09-01T16:28:51;27.45;31.43
67093;SHT31;54011;50.772;7.730;2022-09-01T16:31:26;26.85;32.01
67093;SHT31;54011;50.772;7.730;2022-09-01T16:33:54;28.08;30.55
67093;SHT31;54011;50.772;7.730;2022-09-01T16:36:35;28.92;29.49
67093;SHT31;54011;50.772;7.730;2022-09-01T16:44:32;27.68;31.25
67093;SHT31;54011;50.772;7.730;2022-09-01T16:49:51;26.72;32.63
67093;SHT31;54011;50.772;7.730;2022-09-01T16:52:26;26.67;32.86
67093;SHT31;54011;50.772;7.730;2022-09-01T16:57:48;26.77;32.37
67093;SHT31;54011;50.772;7.730;2022-09-01T17:00:19;26.29;33.19